createdAt,value
2018-02-14T00:02:10.754Z,62.44
2018-02-14T00:04:38.855Z,62.31
2018-02-14T00:07:06.962Z,62.06
2018-02-14T00:09:35.073Z,62.14
2018-02-14T00:12:03.194Z,61.74
2018-02-14T00:14:31.301Z,61.87
2018-02-14T00:16:59.420Z,62.33
2018-02-14T00:19:27.526Z,61.66
2018-02-14T00:21:55.619Z,61.66
2018-02-14T00:24:23.735Z,62.02
2018-02-14T00:26:51.874Z,61.02
2018-02-14T00:29:19.984Z,61.27
2018-02-14T00:31:48.096Z,60.75
2018-02-14T00:34:16.187Z,61.97
2018-02-14T00:36:44.294Z,61.95
2018-02-14T00:39:12.401Z,61.59
2018-02-14T00:41:40.613Z,61.93
2018-02-14T00:44:08.700Z,61.53
2018-02-14T00:46:36.804Z,61.47
2018-02-14T00:49:04.907Z,61.51
2018-02-14T00:51:33.011Z,61.44
2018-02-14T00:54:01.137Z,62.11
2018-02-14T00:56:29.235Z,61.49
2018-02-14T00:58:57.343Z,61.90
2018-02-14T01:01:25.452Z,61.68
2018-02-14T01:03:53.573Z,61.55
2018-02-14T01:06:21.685Z,61.76
2018-02-14T01:08:49.779Z,62.00
2018-02-14T01:11:17.901Z,61.36
2018-02-14T01:13:45.994Z,61.36
2018-02-14T01:16:14.364Z,61.48
2018-02-14T01:18:48.324Z,61.65
2018-02-14T01:21:16.451Z,62.27
2018-02-14T01:23:44.555Z,61.79
2018-02-14T01:26:12.656Z,61.66
2018-02-14T01:28:40.759Z,61.68
2018-02-14T01:31:08.870Z,62.04
2018-02-14T01:33:37.033Z,62.23
2018-02-14T01:36:05.130Z,62.03
2018-02-14T01:38:33.243Z,61.82
2018-02-14T01:41:01.362Z,62.14
2018-02-14T01:43:29.472Z,61.29
2018-02-14T01:45:57.570Z,61.58
2018-02-14T01:48:25.705Z,61.75
2018-02-14T01:50:53.807Z,62.07
2018-02-14T01:53:21.929Z,62.08
2018-02-14T01:55:50.014Z,62.37
2018-02-14T01:58:18.120Z,62.46
2018-02-14T02:00:46.238Z,62.75
2018-02-14T02:03:14.361Z,62.66
2018-02-14T02:05:42.455Z,62.51
2018-02-14T02:08:10.735Z,62.33
2018-02-14T02:10:38.838Z,62.52
2018-02-14T02:13:06.931Z,62.76
2018-02-14T02:15:35.052Z,63.07
2018-02-14T02:18:03.150Z,62.93
2018-02-14T02:20:35.171Z,63.17
2018-02-14T02:23:03.242Z,62.67
2018-02-14T02:25:31.362Z,62.88
2018-02-14T02:27:59.447Z,63.21
2018-02-14T02:30:27.586Z,63.26
2018-02-14T02:32:55.701Z,62.95
2018-02-14T02:35:23.776Z,63.24
2018-02-14T02:37:51.900Z,63.02
2018-02-14T02:40:32.008Z,62.84
2018-02-14T02:43:00.121Z,63.14
2018-02-14T02:45:28.281Z,63.52
2018-02-14T02:47:56.393Z,63.43
2018-02-14T02:50:24.488Z,63.29
2018-02-14T02:52:52.596Z,62.97
2018-02-14T02:55:20.703Z,63.41
2018-02-14T02:57:48.814Z,63.36
2018-02-14T03:00:16.937Z,63.32
2018-02-14T03:02:45.105Z,63.27
2018-02-14T03:05:13.221Z,63.66
2018-02-14T03:07:41.345Z,63.43
2018-02-14T03:10:09.451Z,63.82
2018-02-14T03:12:40.806Z,63.46
2018-02-14T03:15:08.982Z,63.66
2018-02-14T03:17:37.099Z,63.55
2018-02-14T03:20:05.230Z,63.77
2018-02-14T03:22:33.335Z,63.29
2018-02-14T03:25:01.435Z,63.79
2018-02-14T03:27:29.550Z,63.64
2018-02-14T03:29:57.671Z,63.84
2018-02-14T03:32:25.775Z,63.82
2018-02-14T03:34:53.875Z,63.93
2018-02-14T03:37:21.988Z,63.67
2018-02-14T03:39:50.104Z,63.82
2018-02-14T03:42:18.231Z,63.64
2018-02-14T03:44:47.242Z,63.40
2018-02-14T03:47:15.336Z,63.63
2018-02-14T03:49:43.450Z,63.42
2018-02-14T03:52:11.551Z,63.76
2018-02-14T03:54:39.716Z,63.80
2018-02-14T03:57:07.844Z,63.27
2018-02-14T03:59:35.983Z,63.34
2018-02-14T04:02:04.092Z,63.94
2018-02-14T04:04:32.198Z,63.51
2018-02-14T04:07:00.317Z,63.50
2018-02-14T04:09:28.448Z,63.70
2018-02-14T04:11:56.551Z,63.51
2018-02-14T04:14:24.647Z,63.59
2018-02-14T04:16:52.762Z,63.38
2018-02-14T04:19:20.894Z,64.42
2018-02-14T04:21:49.019Z,63.92
2018-02-14T04:24:17.125Z,64.11
2018-02-14T04:26:45.258Z,63.57
2018-02-14T04:29:13.358Z,63.67
2018-02-14T04:31:41.591Z,64.09
2018-02-14T04:34:09.850Z,63.75
2018-02-14T04:36:37.963Z,63.73
2018-02-14T04:39:06.089Z,63.73
2018-02-14T04:41:34.210Z,63.90
2018-02-14T04:44:02.520Z,63.79
2018-02-14T04:46:30.704Z,63.52
2018-02-14T04:48:58.816Z,64.25
2018-02-14T04:51:26.953Z,64.10
2018-02-14T04:53:55.166Z,63.48
2018-02-14T04:56:23.271Z,63.67
2018-02-14T04:58:51.389Z,64.00
2018-02-14T05:01:19.498Z,63.70
2018-02-14T05:03:47.593Z,63.78
2018-02-14T05:06:15.702Z,63.51
2018-02-14T05:08:43.802Z,63.57
2018-02-14T05:11:11.910Z,63.27
2018-02-14T05:13:40.013Z,62.96
2018-02-14T05:16:08.142Z,62.99
2018-02-14T05:18:36.234Z,63.44
2018-02-14T05:21:04.345Z,63.17
2018-02-14T05:23:32.463Z,63.41
2018-02-14T05:26:00.581Z,62.88
2018-02-14T05:28:28.708Z,62.87
2018-02-14T05:30:56.806Z,63.20
2018-02-14T05:33:24.919Z,62.57
2018-02-14T05:35:53.033Z,63.30
2018-02-14T05:38:21.143Z,63.22
2018-02-14T05:40:49.262Z,62.10
2018-02-14T05:43:17.373Z,62.76
2018-02-14T05:45:45.480Z,62.69
2018-02-14T05:48:13.594Z,68.16
2018-02-14T05:50:41.704Z,62.74
2018-02-14T05:53:09.820Z,62.53
2018-02-14T05:55:37.945Z,63.17
2018-02-14T05:58:06.043Z,62.97
2018-02-14T06:00:34.166Z,62.95
2018-02-14T06:03:02.264Z,62.55
2018-02-14T06:05:30.397Z,63.11
2018-02-14T06:07:58.507Z,62.74
2018-02-14T06:10:26.620Z,62.28
2018-02-14T06:12:54.742Z,62.77
2018-02-14T06:15:22.839Z,63.01
2018-02-14T06:17:50.966Z,63.00
2018-02-14T06:20:22.670Z,63.21
2018-02-14T06:22:50.771Z,62.96
2018-02-14T06:25:18.871Z,62.77
2018-02-14T06:27:46.996Z,63.35
2018-02-14T06:30:15.117Z,63.59
2018-02-14T06:32:43.234Z,63.69
2018-02-14T06:35:11.334Z,63.43
2018-02-14T06:37:42.583Z,63.64
2018-02-14T06:40:10.703Z,63.93
2018-02-14T06:42:38.807Z,63.50
2018-02-14T06:45:06.915Z,63.60
2018-02-14T06:47:35.032Z,63.76
2018-02-14T06:50:03.161Z,63.81
2018-02-14T06:52:31.271Z,64.27
2018-02-14T06:54:59.408Z,64.29
2018-02-14T06:57:27.533Z,64.74
2018-02-14T06:59:55.631Z,64.78
2018-02-14T07:02:26.998Z,64.61
2018-02-14T07:04:55.112Z,64.37
2018-02-14T07:07:23.238Z,64.36
2018-02-14T07:09:51.382Z,64.23
2018-02-14T07:12:21.417Z,64.67
2018-02-14T07:14:49.517Z,64.02
2018-02-14T07:17:17.839Z,64.19
2018-02-14T07:19:45.968Z,64.07
2018-02-14T07:22:14.096Z,64.25
2018-02-14T07:24:42.344Z,63.72
2018-02-14T07:27:10.446Z,63.69
2018-02-14T07:29:38.582Z,64.18
2018-02-14T07:32:06.875Z,63.93
2018-02-14T07:34:35.049Z,63.83
2018-02-14T07:37:03.157Z,63.55
2018-02-14T07:39:31.312Z,63.23
2018-02-14T07:41:59.440Z,61.66
2018-02-14T07:44:27.560Z,62.04
2018-02-14T07:46:55.693Z,61.80
2018-02-14T07:49:23.923Z,61.41
2018-02-14T07:51:52.065Z,61.30
2018-02-14T07:54:20.186Z,61.09
2018-02-14T07:56:48.299Z,60.51
2018-02-14T07:59:16.410Z,59.79
2018-02-14T08:01:44.530Z,59.42
2018-02-14T08:04:12.649Z,58.33
2018-02-14T08:06:40.751Z,57.92
2018-02-14T08:09:08.880Z,57.41
2018-02-14T08:11:37.109Z,56.24
2018-02-14T08:14:05.238Z,55.40
2018-02-14T08:16:33.357Z,55.31
2018-02-14T08:19:01.481Z,55.07
2018-02-14T08:21:29.613Z,54.92
2018-02-14T08:23:57.726Z,53.15
2018-02-14T08:26:25.851Z,53.07
2018-02-14T08:28:53.965Z,52.87
2018-02-14T08:31:22.072Z,54.08
2018-02-14T08:33:50.196Z,52.91
2018-02-14T08:36:18.299Z,51.35
2018-02-14T08:38:46.437Z,52.06
2018-02-14T08:41:14.546Z,51.28
2018-02-14T08:43:42.676Z,51.56
2018-02-14T08:46:11.677Z,52.41
2018-02-14T08:48:39.795Z,51.65
2018-02-14T08:51:07.928Z,51.03
2018-02-14T08:53:36.033Z,52.62
2018-02-14T08:56:04.164Z,51.88
2018-02-14T08:58:32.294Z,50.73
2018-02-14T09:01:00.419Z,49.85
2018-02-14T09:03:28.531Z,50.81
2018-02-14T09:05:56.638Z,51.25
2018-02-14T09:08:24.757Z,50.99
2018-02-14T09:10:52.888Z,51.77
2018-02-14T09:13:21.021Z,52.32
2018-02-14T09:15:49.138Z,53.20
2018-02-14T09:18:17.352Z,53.14
2018-02-14T09:20:45.476Z,53.00
2018-02-14T09:23:13.583Z,52.21
2018-02-14T09:25:41.699Z,52.55
2018-02-14T09:28:09.835Z,52.93
2018-02-14T09:30:37.946Z,52.16
2018-02-14T09:33:06.062Z,52.06
2018-02-14T09:35:34.184Z,51.69
2018-02-14T09:38:02.282Z,51.88
2018-02-14T09:40:30.407Z,51.27
2018-02-14T09:42:58.511Z,51.32
2018-02-14T09:45:26.640Z,51.22
2018-02-14T09:47:54.763Z,50.89
2018-02-14T09:50:22.885Z,50.17
2018-02-14T09:52:50.994Z,51.63
2018-02-14T09:55:19.107Z,51.38
2018-02-14T09:57:47.621Z,51.26
2018-02-14T10:00:15.752Z,50.86
2018-02-14T10:02:43.860Z,50.71
2018-02-14T10:05:11.966Z,49.92
2018-02-14T10:07:40.093Z,50.33
2018-02-14T10:10:08.221Z,49.36
2018-02-14T10:12:36.326Z,50.03
2018-02-14T10:15:04.448Z,49.64
2018-02-14T10:17:32.559Z,49.53
2018-02-14T10:20:00.684Z,49.39
2018-02-14T10:22:29.010Z,49.06
2018-02-14T10:24:58.138Z,49.08
2018-02-14T10:27:26.254Z,49.25
2018-02-14T10:29:54.375Z,48.82
2018-02-14T10:32:22.489Z,48.02
2018-02-14T10:34:50.595Z,48.33
2018-02-14T10:37:18.719Z,47.92
2018-02-14T10:39:46.831Z,48.54
2018-02-14T10:42:14.961Z,47.38
2018-02-14T10:44:43.069Z,47.85
2018-02-14T10:47:11.197Z,47.05
2018-02-14T10:49:39.483Z,47.84
2018-02-14T10:52:07.614Z,46.80
2018-02-14T10:54:35.763Z,46.70
2018-02-14T10:57:03.881Z,46.51
2018-02-14T10:59:31.979Z,47.00
2018-02-14T11:02:05.623Z,46.04
2018-02-14T11:04:33.784Z,46.18
2018-02-14T11:07:07.496Z,45.64
2018-02-14T11:09:35.639Z,45.11
2018-02-14T11:12:03.746Z,44.84
2018-02-14T11:14:31.874Z,44.71
2018-02-14T11:16:59.976Z,44.80
2018-02-14T11:19:28.112Z,44.51
2018-02-14T11:21:56.223Z,44.81
2018-02-14T11:24:24.464Z,44.06
2018-02-14T11:26:52.551Z,43.73
2018-02-14T11:29:20.657Z,43.91
2018-02-14T11:31:48.798Z,42.74
2018-02-14T11:34:16.886Z,42.39
2018-02-14T11:36:45.021Z,41.89
2018-02-14T11:39:13.127Z,42.19
2018-02-14T11:41:41.292Z,42.43
2018-02-14T11:44:09.485Z,42.14
2018-02-14T11:46:37.626Z,41.76
2018-02-14T11:49:05.777Z,41.04
2018-02-14T11:51:33.881Z,40.92
2018-02-14T11:54:01.997Z,43.12
2018-02-14T11:56:30.145Z,41.33
2018-02-14T11:58:58.270Z,41.55
2018-02-14T12:01:26.366Z,41.49
2018-02-14T12:03:54.492Z,42.05
2018-02-14T12:06:22.605Z,41.34
2018-02-14T12:08:50.699Z,40.59
2018-02-14T12:11:18.835Z,40.78
2018-02-14T12:13:46.945Z,39.97
2018-02-14T12:16:15.079Z,39.01
2018-02-14T12:18:43.196Z,39.46
2018-02-14T12:21:11.328Z,39.74
2018-02-14T12:23:39.414Z,38.26
2018-02-14T12:26:07.557Z,38.01
2018-02-14T12:28:35.669Z,38.07
2018-02-14T12:31:03.797Z,37.96
2018-02-14T12:33:31.917Z,37.51
2018-02-14T12:36:00.028Z,37.62
2018-02-14T12:38:28.160Z,37.34
2018-02-14T12:40:56.278Z,38.60
2018-02-14T12:43:24.388Z,37.43
2018-02-14T12:45:52.533Z,37.18
2018-02-14T12:48:20.629Z,36.71
2018-02-14T12:50:48.751Z,35.77
2018-02-14T12:53:16.861Z,36.41
2018-02-14T12:55:44.976Z,35.98
2018-02-14T12:58:13.086Z,36.31
2018-02-14T13:00:41.211Z,36.51
2018-02-14T13:03:09.286Z,36.56
2018-02-14T13:05:37.407Z,36.28
2018-02-14T13:08:05.501Z,35.79
2018-02-14T13:10:33.625Z,35.30
2018-02-14T13:13:01.734Z,35.47
2018-02-14T13:15:32.802Z,35.36
2018-02-14T13:18:00.903Z,35.91
2018-02-14T13:20:29.016Z,35.34
2018-02-14T13:22:57.112Z,35.00
2018-02-14T13:25:25.223Z,35.29
2018-02-14T13:27:53.347Z,34.98
2018-02-14T13:30:21.461Z,35.19
2018-02-14T13:32:49.615Z,35.26
2018-02-14T13:35:17.703Z,34.67
2018-02-14T13:37:45.830Z,34.04
2018-02-14T13:40:13.944Z,35.03
2018-02-14T13:42:42.057Z,34.95
2018-02-14T13:45:10.167Z,35.59
2018-02-14T13:47:38.286Z,35.34
2018-02-14T13:50:06.492Z,35.69
2018-02-14T13:52:34.516Z,35.76
2018-02-14T13:55:02.651Z,35.56
2018-02-14T13:57:30.762Z,35.34
2018-02-14T13:59:58.904Z,35.04
2018-02-14T14:02:27.026Z,34.99
2018-02-14T14:04:55.149Z,34.64
2018-02-14T14:07:23.303Z,34.86
2018-02-14T14:09:51.368Z,34.62
2018-02-14T14:12:19.476Z,34.32
2018-02-14T14:14:47.609Z,34.65
2018-02-14T14:17:15.718Z,34.14
2018-02-14T14:19:43.833Z,34.26
2018-02-14T14:22:11.966Z,34.53
2018-02-14T14:24:40.080Z,34.50
2018-02-14T14:27:08.235Z,34.27
2018-02-14T14:29:36.348Z,34.87
2018-02-14T14:32:04.451Z,35.20
2018-02-14T14:34:32.581Z,35.79
2018-02-14T14:37:00.685Z,35.77
2018-02-14T14:39:28.812Z,35.88
2018-02-14T14:41:56.918Z,36.07
2018-02-14T14:44:25.057Z,35.84
2018-02-14T14:46:53.167Z,36.61
2018-02-14T14:49:21.286Z,35.48
2018-02-14T14:51:49.427Z,35.56
2018-02-14T14:54:17.550Z,35.81
2018-02-14T14:56:45.648Z,36.38
2018-02-14T14:59:13.768Z,36.50
2018-02-14T15:01:42.029Z,36.66
2018-02-14T15:04:10.131Z,36.34
2018-02-14T15:06:38.273Z,36.39
2018-02-14T15:09:06.367Z,36.70
2018-02-14T15:11:34.505Z,36.90
2018-02-14T15:14:02.625Z,37.04
2018-02-14T15:16:30.757Z,37.23
2018-02-14T15:18:58.892Z,37.18
2018-02-14T15:21:27.005Z,37.01
2018-02-14T15:23:55.157Z,36.99
2018-02-14T15:26:23.283Z,37.78
2018-02-14T15:28:54.699Z,37.65
2018-02-14T15:31:22.802Z,37.56
2018-02-14T15:33:50.927Z,38.27
2018-02-14T15:36:19.046Z,38.26
2018-02-14T15:38:47.170Z,38.80
2018-02-14T15:41:15.293Z,39.41
2018-02-14T15:43:43.528Z,38.99
2018-02-14T15:46:11.656Z,39.90
2018-02-14T15:48:42.773Z,40.26
2018-02-14T15:51:10.902Z,41.59
2018-02-14T15:53:38.994Z,42.45
2018-02-14T15:56:07.118Z,41.07
2018-02-14T15:58:35.276Z,41.09
2018-02-14T16:01:03.409Z,42.10
2018-02-14T16:03:31.510Z,41.68
2018-02-14T16:05:59.657Z,42.33
2018-02-14T16:08:27.755Z,42.29
2018-02-14T16:10:55.868Z,40.69
2018-02-14T16:13:23.970Z,39.66
2018-02-14T16:15:52.096Z,39.53
2018-02-14T16:18:20.194Z,40.25
2018-02-14T16:20:48.336Z,40.70
2018-02-14T16:23:19.980Z,41.19
2018-02-14T16:25:48.979Z,41.78
2018-02-14T16:28:17.103Z,42.66
2018-02-14T16:30:45.199Z,41.49
2018-02-14T16:33:13.339Z,41.51
2018-02-14T16:35:41.434Z,40.17
2018-02-14T16:38:09.570Z,39.52
2018-02-14T16:40:37.729Z,38.99
2018-02-14T16:43:05.849Z,39.54
2018-02-14T16:45:33.964Z,39.62
2018-02-14T16:48:05.331Z,39.62
2018-02-14T16:50:33.458Z,40.72
2018-02-14T16:53:01.572Z,40.72
2018-02-14T16:55:29.682Z,40.93
2018-02-14T16:57:57.789Z,40.03
2018-02-14T17:00:25.900Z,40.29
2018-02-14T17:02:53.999Z,40.52
2018-02-14T17:05:22.204Z,40.70
2018-02-14T17:07:50.341Z,41.01
2018-02-14T17:10:18.461Z,40.99
2018-02-14T17:12:46.554Z,41.12
2018-02-14T17:15:14.655Z,41.02
2018-02-14T17:17:42.777Z,40.01
2018-02-14T17:20:10.880Z,40.65
2018-02-14T17:22:38.997Z,39.13
2018-02-14T17:25:07.103Z,39.91
2018-02-14T17:27:35.211Z,40.83
2018-02-14T17:30:03.346Z,41.05
2018-02-14T17:32:31.415Z,40.93
2018-02-14T17:34:59.527Z,39.99
2018-02-14T17:37:27.630Z,40.54
2018-02-14T17:39:55.757Z,40.67
2018-02-14T17:42:23.883Z,40.41
2018-02-14T17:44:51.992Z,41.12
2018-02-14T17:47:20.109Z,42.54
2018-02-14T17:49:48.211Z,43.30
2018-02-14T17:52:16.315Z,43.74
2018-02-14T17:54:44.428Z,44.84
2018-02-14T17:57:12.544Z,45.03
2018-02-14T17:59:40.675Z,45.52
2018-02-14T18:02:08.787Z,45.58
2018-02-14T18:04:36.898Z,46.18
2018-02-14T18:07:05.013Z,46.55
2018-02-14T18:09:33.160Z,46.77
2018-02-14T18:12:01.335Z,46.34
2018-02-14T18:14:29.454Z,46.85
2018-02-14T18:16:57.572Z,46.90
2018-02-14T18:19:25.688Z,47.57
2018-02-14T18:21:53.794Z,47.69
2018-02-14T18:24:21.913Z,47.39
2018-02-14T18:26:50.015Z,47.39
2018-02-14T18:29:18.143Z,46.74
2018-02-14T18:31:46.265Z,47.24
2018-02-14T18:34:14.388Z,47.34
2018-02-14T18:36:42.543Z,47.29
2018-02-14T18:39:10.643Z,47.25
2018-02-14T18:41:38.772Z,46.69
2018-02-14T18:44:07.013Z,47.14
2018-02-14T18:46:35.264Z,46.83
2018-02-14T18:49:03.420Z,47.44
2018-02-14T18:51:31.604Z,47.19
2018-02-14T18:53:59.703Z,47.02
2018-02-14T18:56:27.814Z,47.30
2018-02-14T18:58:55.929Z,47.78
2018-02-14T19:01:24.052Z,48.45
2018-02-14T19:03:52.200Z,48.56
2018-02-14T19:06:20.413Z,48.15
2018-02-14T19:08:48.549Z,48.82
2018-02-14T19:11:16.660Z,48.66
2018-02-14T19:13:44.817Z,48.98
2018-02-14T19:16:12.929Z,48.74
2018-02-14T19:18:41.075Z,48.95
2018-02-14T19:21:09.200Z,49.54
2018-02-14T19:23:37.305Z,49.78
2018-02-14T19:26:05.439Z,49.22
2018-02-14T19:28:33.549Z,49.02
2018-02-14T19:31:04.660Z,48.89
2018-02-14T19:33:32.877Z,49.63
2018-02-14T19:36:00.984Z,49.44
2018-02-14T19:38:29.095Z,49.32
2018-02-14T19:40:57.213Z,48.87
2018-02-14T19:43:25.329Z,48.74
2018-02-14T19:45:53.446Z,49.08
2018-02-14T19:48:21.558Z,49.66
2018-02-14T19:50:49.672Z,49.08
2018-02-14T19:53:17.801Z,49.00
2018-02-14T19:55:45.909Z,49.33
2018-02-14T19:58:14.019Z,49.28
2018-02-14T20:00:42.139Z,49.25
2018-02-14T20:03:10.265Z,49.88
2018-02-14T20:05:38.378Z,49.21
2018-02-14T20:08:06.483Z,49.48
2018-02-14T20:10:34.601Z,49.84
2018-02-14T20:13:02.713Z,49.99
2018-02-14T20:15:30.849Z,49.75
2018-02-14T20:17:58.966Z,49.78
2018-02-14T20:20:27.106Z,49.60
2018-02-14T20:22:55.211Z,50.24
2018-02-14T20:25:23.331Z,50.59
2018-02-14T20:27:51.436Z,50.26
2018-02-14T20:30:19.535Z,49.70
2018-02-14T20:32:47.666Z,50.12
2018-02-14T20:35:15.779Z,50.23
2018-02-14T20:37:47.019Z,50.80
2018-02-14T20:40:15.357Z,50.61
2018-02-14T20:42:43.462Z,50.89
2018-02-14T20:45:11.635Z,50.87
2018-02-14T20:47:39.769Z,50.85
2018-02-14T20:50:07.878Z,50.83
2018-02-14T20:52:36.045Z,50.35
2018-02-14T20:55:04.168Z,50.44
2018-02-14T20:57:32.272Z,50.65
2018-02-14T21:00:00.393Z,51.07
2018-02-14T21:02:28.515Z,50.91
2018-02-14T21:04:56.612Z,50.73
2018-02-14T21:07:24.749Z,51.34
2018-02-14T21:09:52.861Z,51.12
2018-02-14T21:12:20.971Z,51.17
2018-02-14T21:14:49.088Z,51.14
2018-02-14T21:17:17.206Z,51.33
2018-02-14T21:19:45.315Z,50.90
2018-02-14T21:22:13.463Z,51.15
2018-02-14T21:24:41.595Z,50.93
2018-02-14T21:27:09.702Z,51.06
2018-02-14T21:29:37.834Z,51.68
2018-02-14T21:32:06.092Z,51.24
2018-02-14T21:34:34.216Z,51.55
2018-02-14T21:37:02.354Z,51.57
2018-02-14T21:39:30.453Z,51.77
2018-02-14T21:41:58.565Z,51.92
2018-02-14T21:44:26.714Z,51.75
2018-02-14T21:46:54.832Z,51.33
2018-02-14T21:49:22.952Z,52.06
2018-02-14T21:51:51.079Z,51.82
2018-02-14T21:54:19.207Z,51.70
2018-02-14T21:56:47.330Z,51.44
2018-02-14T21:59:15.427Z,51.74
2018-02-14T22:01:43.788Z,51.56
2018-02-14T22:04:15.123Z,51.52
2018-02-14T22:06:43.264Z,51.88
2018-02-14T22:09:11.367Z,52.01
2018-02-14T22:11:39.562Z,51.67
2018-02-14T22:14:07.658Z,52.04
2018-02-14T22:16:35.778Z,51.84
2018-02-14T22:19:03.890Z,52.44
2018-02-14T22:21:32.014Z,52.33
2018-02-14T22:24:00.142Z,52.42
2018-02-14T22:26:28.259Z,52.26
2018-02-14T22:28:56.398Z,52.75
2018-02-14T22:31:24.511Z,52.49
2018-02-14T22:33:52.625Z,52.57
2018-02-14T22:36:20.754Z,52.46
2018-02-14T22:38:48.854Z,52.64
2018-02-14T22:41:16.989Z,52.96
2018-02-14T22:43:45.099Z,53.32
2018-02-14T22:46:13.233Z,53.02
2018-02-14T22:48:41.352Z,53.22
2018-02-14T22:51:09.448Z,53.20
2018-02-14T22:53:37.606Z,52.92
2018-02-14T22:56:05.712Z,53.03
2018-02-14T22:58:33.823Z,53.28
2018-02-14T23:01:01.935Z,53.32
2018-02-14T23:03:30.053Z,53.46
2018-02-14T23:05:58.159Z,53.57
2018-02-14T23:08:26.308Z,53.01
2018-02-14T23:10:54.420Z,53.75
2018-02-14T23:13:22.522Z,53.42
2018-02-14T23:15:50.661Z,53.64
2018-02-14T23:18:18.789Z,53.77
2018-02-14T23:20:47.180Z,53.70
2018-02-14T23:23:15.290Z,53.81
2018-02-14T23:25:43.403Z,53.87
2018-02-14T23:28:11.530Z,53.90
2018-02-14T23:30:39.653Z,53.89
2018-02-14T23:33:07.773Z,53.68
2018-02-14T23:35:35.884Z,53.40
2018-02-14T23:38:04.019Z,53.74
2018-02-14T23:40:32.140Z,53.93
2018-02-14T23:43:00.346Z,53.96
2018-02-14T23:45:28.474Z,54.12
2018-02-14T23:47:56.609Z,53.81
2018-02-14T23:50:24.791Z,54.20
2018-02-14T23:52:52.887Z,53.45
2018-02-14T23:55:21.004Z,53.84
2018-02-14T23:57:49.110Z,53.64
